createdAt,value
2016-11-23T00:00:05.792Z,22.67
2016-11-23T00:01:05.821Z,22.7
2016-11-23T00:02:05.542Z,22.61
2016-11-23T00:03:05.859Z,22.58
2016-11-23T00:04:05.900Z,22.68
2016-11-23T00:05:05.941Z,22.68
2016-11-23T00:06:05.645Z,22.68
2016-11-23T00:07:05.683Z,22.64
2016-11-23T00:08:05.714Z,22.64
2016-11-23T00:09:05.444Z,22.65
2016-11-23T00:10:05.460Z,22.65
2016-11-23T00:11:05.801Z,22.64
2016-11-23T00:12:05.521Z,22.58
2016-11-23T00:13:05.849Z,22.62
2016-11-23T00:14:05.911Z,22.58
2016-11-23T00:15:05.905Z,22.52
2016-11-23T00:16:06.249Z,22.62
2016-11-23T00:17:05.963Z,22.54
2016-11-23T00:18:05.988Z,22.6
2016-11-23T00:19:06.335Z,22.46
2016-11-23T00:20:06.080Z,22.61
2016-11-23T00:21:06.081Z,22.47
2016-11-23T00:22:05.802Z,22.51
2016-11-23T00:23:06.439Z,22.49
2016-11-23T00:24:06.162Z,22.57
2016-11-23T00:25:06.488Z,22.52
2016-11-23T00:26:06.529Z,22.45
2016-11-23T00:27:06.545Z,22.55
2016-11-23T00:28:06.275Z,22.51
2016-11-23T00:29:06.003Z,22.49
2016-11-23T00:30:06.636Z,22.55
2016-11-23T00:31:06.673Z,22.47
2016-11-23T00:32:06.390Z,22.55
2016-11-23T00:33:06.419Z,22.45
2016-11-23T00:34:06.451Z,22.47
2016-11-23T00:35:06.772Z,22.47
2016-11-23T00:36:06.809Z,22.45
2016-11-23T00:37:06.225Z,22.39
2016-11-23T00:38:06.554Z,22.39
2016-11-23T00:39:06.584Z,22.49
2016-11-23T00:40:06.621Z,22.45
2016-11-23T00:41:06.645Z,22.36
2016-11-23T00:42:06.672Z,22.45
2016-11-23T00:43:06.406Z,22.46
2016-11-23T00:44:06.427Z,22.4
2016-11-23T00:45:06.464Z,22.42
2016-11-23T00:46:07.081Z,22.43
2016-11-23T00:47:06.806Z,22.4
2016-11-23T00:48:06.841Z,22.35
2016-11-23T00:49:07.199Z,22.45
2016-11-23T00:50:06.904Z,22.39
2016-11-23T00:51:06.921Z,22.43
2016-11-23T00:52:06.663Z,22.43
2016-11-23T00:53:06.989Z,22.43
2016-11-23T00:54:07.006Z,22.37
2016-11-23T00:55:07.036Z,22.39
2016-11-23T00:56:07.376Z,22.42
2016-11-23T00:57:07.096Z,22.36
2016-11-23T00:58:07.135Z,22.37
2016-11-23T00:59:07.457Z,22.4
2016-11-23T01:00:07.478Z,22.35
2016-11-23T01:01:07.202Z,22.39
2016-11-23T01:02:07.273Z,22.4
2016-11-23T01:03:07.265Z,22.39
2016-11-23T01:04:07.311Z,22.4
2016-11-23T01:05:07.339Z,22.36
2016-11-23T01:06:07.040Z,22.39
2016-11-23T01:07:07.377Z,22.28
2016-11-23T01:08:07.405Z,22.31
2016-11-23T01:09:07.436Z,22.3
2016-11-23T01:10:07.459Z,22.35
2016-11-23T01:11:07.491Z,22.27
2016-11-23T01:12:07.219Z,22.36
2016-11-23T01:13:07.862Z,22.27
2016-11-23T01:14:07.570Z,22.25
2016-11-23T01:15:07.607Z,22.24
2016-11-23T01:16:07.927Z,22.27
2016-11-23T01:17:07.968Z,22.31
2016-11-23T01:18:07.989Z,22.28
2016-11-23T01:19:08.026Z,22.3
2016-11-23T01:20:07.438Z,22.31
2016-11-23T01:21:07.771Z,22.3
2016-11-23T01:22:08.104Z,22.28
2016-11-23T01:23:07.820Z,22.22
2016-11-23T01:24:07.849Z,22.24
2016-11-23T01:25:08.206Z,22.24
2016-11-23T01:26:08.220Z,22.35
2016-11-23T01:27:08.243Z,22.27
2016-11-23T01:28:07.976Z,22.25
2016-11-23T01:29:08.307Z,22.28
2016-11-23T01:30:08.334Z,22.21
2016-11-23T01:31:08.351Z,22.3
2016-11-23T01:32:07.787Z,22.25
2016-11-23T01:33:08.116Z,22.22
2016-11-23T01:34:08.443Z,22.21
2016-11-23T01:35:08.157Z,22.17
2016-11-23T01:36:08.498Z,22.22
2016-11-23T01:37:08.219Z,22.18
2016-11-23T01:38:08.239Z,22.21
2016-11-23T01:39:08.282Z,22.14
2016-11-23T01:40:08.605Z,22.21
2016-11-23T01:41:08.334Z,22.17
2016-11-23T01:42:08.058Z,22.18
2016-11-23T01:43:08.384Z,22.2
2016-11-23T01:44:08.416Z,22.14
2016-11-23T01:45:08.444Z,22.12
2016-11-23T01:46:08.465Z,22.09
2016-11-23T01:47:08.194Z,22.17
2016-11-23T01:48:08.823Z,22.14
2016-11-23T01:49:08.252Z,22.14
2016-11-23T01:50:08.274Z,22.17
2016-11-23T01:51:08.637Z,22.09
2016-11-23T01:52:08.954Z,22.12
2016-11-23T01:53:08.369Z,22.18
2016-11-23T01:54:08.388Z,22.1
2016-11-23T01:55:08.420Z,22.12
2016-11-23T01:56:08.449Z,22.17
2016-11-23T01:57:08.793Z,22.12
2016-11-23T01:58:08.806Z,22.12
2016-11-23T01:59:08.834Z,22.14
2016-11-23T02:00:08.868Z,22.14
2016-11-23T02:01:09.201Z,22.06
2016-11-23T02:02:09.225Z,22.09
2016-11-23T02:03:09.250Z,22.12
2016-11-23T02:04:09.275Z,22.1
2016-11-23T02:05:09.003Z,22.02
2016-11-23T02:06:08.728Z,22.06
2016-11-23T02:07:09.060Z,22.03
2016-11-23T02:08:09.085Z,21.99
2016-11-23T02:09:08.818Z,22.02
2016-11-23T02:10:09.143Z,22.09
2016-11-23T02:11:09.486Z,22.03
2016-11-23T02:12:09.205Z,22.05
2016-11-23T02:13:09.221Z,22.09
2016-11-23T02:14:09.258Z,22
2016-11-23T02:15:09.278Z,22.07
2016-11-23T02:16:09.307Z,22.02
2016-11-23T02:17:09.340Z,22.02
2016-11-23T02:18:24.282Z,22.09
2016-11-23T02:19:09.705Z,22.03
2016-11-23T02:20:09.414Z,22.03
2016-11-23T02:21:09.447Z,21.98
2016-11-23T02:22:09.486Z,22
2016-11-23T02:23:09.510Z,22.1
2016-11-23T02:24:09.833Z,22.05
2016-11-23T02:25:09.862Z,22
2016-11-23T02:26:09.894Z,21.98
2016-11-23T02:27:09.619Z,22.02
2016-11-23T02:28:09.340Z,22.03
2016-11-23T02:29:09.977Z,22.06
2016-11-23T02:30:09.703Z,22.09
2016-11-23T02:31:10.034Z,22.06
2016-11-23T02:32:10.050Z,22.09
2016-11-23T02:33:09.775Z,22.02
2016-11-23T02:34:09.504Z,22.05
2016-11-23T02:35:10.149Z,22.1
2016-11-23T02:36:09.870Z,22.05
2016-11-23T02:37:10.490Z,22.03
2016-11-23T02:38:10.220Z,21.96
2016-11-23T02:39:10.260Z,21.92
2016-11-23T02:40:10.279Z,22.02
2016-11-23T02:41:10.003Z,21.99
2016-11-23T02:42:10.342Z,21.86
2016-11-23T02:43:10.355Z,22.02
2016-11-23T02:44:10.400Z,21.98
2016-11-23T02:45:10.116Z,21.92
2016-11-23T02:46:10.448Z,22
2016-11-23T02:47:10.177Z,21.84
2016-11-23T02:48:10.498Z,21.92
2016-11-23T02:49:10.219Z,21.84
2016-11-23T02:50:09.947Z,21.91
2016-11-23T02:51:09.980Z,21.86
2016-11-23T02:52:10.297Z,22
2016-11-23T02:53:10.338Z,21.88
2016-11-23T02:54:10.666Z,21.92
2016-11-23T02:55:10.698Z,21.94
2016-11-23T02:56:10.732Z,21.91
2016-11-23T02:57:10.147Z,21.91
2016-11-23T02:58:10.479Z,21.98
2016-11-23T02:59:10.510Z,21.94
2016-11-23T03:00:10.839Z,21.79
2016-11-23T03:01:10.563Z,21.91
2016-11-23T03:02:10.580Z,21.94
2016-11-23T03:03:10.321Z,21.9
2016-11-23T03:04:10.641Z,21.84
2016-11-23T03:05:10.974Z,21.8
2016-11-23T03:06:10.735Z,21.82
2016-11-23T03:07:11.018Z,21.84
2016-11-23T03:08:10.760Z,21.9
2016-11-23T03:09:10.789Z,21.86
2016-11-23T03:10:10.817Z,21.86
2016-11-23T03:11:10.842Z,21.94
2016-11-23T03:12:10.555Z,21.79
2016-11-23T03:13:11.204Z,21.77
2016-11-23T03:14:10.920Z,21.88
2016-11-23T03:15:11.257Z,21.91
2016-11-23T03:16:10.982Z,21.88
2016-11-23T03:17:10.702Z,21.82
2016-11-23T03:18:11.024Z,21.86
2016-11-23T03:19:10.760Z,21.82
2016-11-23T03:20:11.080Z,21.84
2016-11-23T03:21:11.117Z,21.8
2016-11-23T03:22:10.844Z,21.92
2016-11-23T03:23:11.483Z,21.77
2016-11-23T03:24:11.503Z,21.88
2016-11-23T03:25:10.924Z,21.8
2016-11-23T03:26:11.563Z,21.86
2016-11-23T03:27:11.585Z,21.86
2016-11-23T03:28:11.616Z,21.75
2016-11-23T03:29:11.339Z,21.82
2016-11-23T03:30:11.691Z,21.86
2016-11-23T03:31:11.400Z,21.86
2016-11-23T03:32:11.424Z,21.77
2016-11-23T03:33:11.749Z,21.79
2016-11-23T03:34:11.182Z,21.88
2016-11-23T03:35:11.500Z,21.82
2016-11-23T03:36:11.530Z,21.84
2016-11-23T03:37:11.572Z,21.83
2016-11-23T03:38:11.897Z,21.83
2016-11-23T03:39:11.618Z,21.83
2016-11-23T03:40:11.643Z,21.8
2016-11-23T03:41:11.977Z,21.83
2016-11-23T03:42:12.007Z,21.79
2016-11-23T03:43:12.024Z,21.84
2016-11-23T03:44:12.061Z,21.83
2016-11-23T03:45:11.787Z,21.86
2016-11-23T03:46:12.138Z,21.82
2016-11-23T03:47:12.167Z,21.84
2016-11-23T03:48:12.169Z,21.83
2016-11-23T03:49:11.586Z,21.82
2016-11-23T03:50:12.225Z,21.84
2016-11-23T03:51:12.254Z,21.83
2016-11-23T03:52:11.980Z,21.79
2016-11-23T03:53:12.307Z,21.77
2016-11-23T03:54:12.040Z,21.8
2016-11-23T03:55:12.357Z,21.75
2016-11-23T03:56:12.081Z,21.82
2016-11-23T03:57:12.110Z,21.75
2016-11-23T03:58:12.151Z,21.72
2016-11-23T03:59:11.868Z,21.82
2016-11-23T04:00:12.507Z,21.74
2016-11-23T04:01:12.225Z,21.8
2016-11-23T04:02:11.947Z,21.75
2016-11-23T04:03:25.318Z,21.79
2016-11-23T04:04:12.611Z,21.69
2016-11-23T04:05:12.631Z,21.74
2016-11-23T04:06:12.660Z,21.79
2016-11-23T04:07:12.697Z,21.79
2016-11-23T04:08:12.723Z,21.79
2016-11-23T04:09:12.447Z,21.72
2016-11-23T04:10:12.459Z,21.71
2016-11-23T04:11:12.495Z,21.79
2016-11-23T04:12:12.525Z,21.8
2016-11-23T04:13:12.865Z,21.77
2016-11-23T04:14:12.274Z,21.75
2016-11-23T04:15:12.915Z,21.77
2016-11-23T04:16:12.644Z,21.75
2016-11-23T04:17:12.677Z,21.75
2016-11-23T04:18:12.692Z,21.74
2016-11-23T04:19:12.727Z,21.75
2016-11-23T04:20:12.452Z,21.74
2016-11-23T04:21:12.780Z,21.71
2016-11-23T04:22:12.832Z,21.67
2016-11-23T04:23:12.529Z,21.72
2016-11-23T04:24:13.157Z,21.71
2016-11-23T04:25:13.197Z,21.67
2016-11-23T04:26:12.918Z,21.69
2016-11-23T04:27:12.652Z,21.72
2016-11-23T04:28:12.973Z,21.67
2016-11-23T04:29:12.691Z,21.69
2016-11-23T04:30:12.710Z,21.71
2016-11-23T04:31:13.051Z,21.69
2016-11-23T04:32:12.775Z,21.69
2016-11-23T04:33:12.808Z,21.74
2016-11-23T04:34:13.136Z,21.68
2016-11-23T04:35:13.162Z,21.67
2016-11-23T04:36:13.193Z,21.68
2016-11-23T04:37:13.219Z,21.72
2016-11-23T04:38:13.240Z,21.67
2016-11-23T04:39:13.280Z,21.67
2016-11-23T04:40:13.602Z,21.71
2016-11-23T04:41:13.634Z,21.65
2016-11-23T04:42:13.362Z,21.67
2016-11-23T04:43:13.379Z,21.65
2016-11-23T04:44:13.716Z,21.67
2016-11-23T04:45:13.436Z,21.71
2016-11-23T04:46:13.461Z,21.62
2016-11-23T04:47:13.794Z,21.58
2016-11-23T04:48:13.831Z,21.67
2016-11-23T04:49:13.551Z,21.69
2016-11-23T04:50:13.572Z,21.72
2016-11-23T04:51:13.300Z,21.67
2016-11-23T04:52:13.634Z,21.67
2016-11-23T04:53:13.966Z,21.68
2016-11-23T04:54:13.691Z,21.59
2016-11-23T04:55:13.767Z,21.65
2016-11-23T04:56:13.441Z,21.69
2016-11-23T04:57:13.769Z,21.68
2016-11-23T04:58:13.802Z,21.68
2016-11-23T04:59:13.830Z,21.69
2016-11-23T05:00:13.856Z,21.67
2016-11-23T05:01:13.880Z,21.62
2016-11-23T05:02:13.900Z,21.61
2016-11-23T05:03:14.241Z,21.62
2016-11-23T05:04:13.958Z,21.69
2016-11-23T05:05:14.299Z,21.67
2016-11-23T05:06:14.024Z,21.68
2016-11-23T05:07:13.748Z,21.53
2016-11-23T05:08:14.377Z,21.56
2016-11-23T05:09:13.803Z,21.59
2016-11-23T05:10:14.429Z,21.65
2016-11-23T05:11:14.459Z,21.72
2016-11-23T05:12:13.888Z,21.53
2016-11-23T05:13:14.544Z,21.62
2016-11-23T05:14:14.246Z,21.56
2016-11-23T05:15:14.566Z,21.59
2016-11-23T05:16:14.310Z,21.61
2016-11-23T05:17:14.323Z,21.58
2016-11-23T05:18:14.389Z,21.59
2016-11-23T05:19:14.391Z,21.67
2016-11-23T05:20:14.710Z,21.59
2016-11-23T05:21:14.439Z,21.65
2016-11-23T05:22:14.451Z,21.64
2016-11-23T05:23:14.489Z,21.62
2016-11-23T05:24:14.831Z,21.67
2016-11-23T05:25:14.234Z,21.64
2016-11-23T05:26:14.882Z,21.58
2016-11-23T05:27:14.295Z,21.62
2016-11-23T05:28:14.315Z,21.56
2016-11-23T05:29:14.349Z,21.68
2016-11-23T05:30:14.992Z,21.68
2016-11-23T05:31:15.010Z,21.56
2016-11-23T05:32:14.439Z,21.65
2016-11-23T05:33:14.764Z,21.67
2016-11-23T05:34:14.797Z,21.69
2016-11-23T05:35:14.820Z,21.69
2016-11-23T05:36:15.146Z,21.67
2016-11-23T05:37:14.574Z,21.75
2016-11-23T05:38:14.915Z,21.75
2016-11-23T05:39:15.231Z,21.72
2016-11-23T05:40:15.257Z,21.71
2016-11-23T05:41:15.317Z,21.82
2016-11-23T05:42:15.017Z,21.79
2016-11-23T05:43:14.738Z,21.75
2016-11-23T05:44:15.062Z,21.83
2016-11-23T05:45:15.387Z,21.86
2016-11-23T05:46:15.122Z,21.91
2016-11-23T05:47:15.146Z,21.9
2016-11-23T05:48:15.173Z,21.91
2016-11-23T05:49:15.518Z,21.83
2016-11-23T05:50:15.231Z,21.82
2016-11-23T05:51:15.563Z,21.94
2016-11-23T05:52:15.284Z,22.02
2016-11-23T05:53:15.621Z,21.94
2016-11-23T05:54:15.658Z,21.94
2016-11-23T05:55:15.373Z,22.05
2016-11-23T05:56:15.706Z,22.02
2016-11-23T05:57:15.129Z,22.07
2016-11-23T05:58:15.769Z,22
2016-11-23T05:59:15.480Z,22
2016-11-23T06:00:15.237Z,22.05
2016-11-23T06:01:15.838Z,22.05
2016-11-23T06:02:15.866Z,22.05
2016-11-23T06:03:15.895Z,22.07
2016-11-23T06:04:15.924Z,22.14
2016-11-23T06:05:15.644Z,22.14
2016-11-23T06:06:15.673Z,22.14
2016-11-23T06:07:16.019Z,22.15
2016-11-23T06:08:15.734Z,22.12
2016-11-23T06:09:16.063Z,22.14
2016-11-23T06:10:15.784Z,22.2
2016-11-23T06:11:15.808Z,22.17
2016-11-23T06:12:16.157Z,22.25
2016-11-23T06:13:15.571Z,22.2
2016-11-23T06:14:16.190Z,22.21
2016-11-23T06:15:15.935Z,22.24
2016-11-23T06:16:15.948Z,22.31
2016-11-23T06:17:15.984Z,22.24
2016-11-23T06:18:16.013Z,22.27
2016-11-23T06:19:16.344Z,22.25
2016-11-23T06:20:16.362Z,22.31
2016-11-23T06:21:16.395Z,22.37
2016-11-23T06:22:16.436Z,22.36
2016-11-23T06:23:16.447Z,22.36
2016-11-23T06:24:16.177Z,22.39
2016-11-23T06:25:15.906Z,22.42
2016-11-23T06:26:16.246Z,22.42
2016-11-23T06:27:16.263Z,22.39
2016-11-23T06:28:16.312Z,22.43
2016-11-23T06:29:16.016Z,22.37
2016-11-23T06:30:16.646Z,22.49
2016-11-23T06:31:16.688Z,22.47
2016-11-23T06:32:16.393Z,22.45
2016-11-23T06:33:16.730Z,22.49
2016-11-23T06:34:16.755Z,22.49
2016-11-23T06:35:16.176Z,22.51
2016-11-23T06:36:16.816Z,22.47
2016-11-23T06:37:16.538Z,22.51
2016-11-23T06:38:16.571Z,22.61
2016-11-23T06:39:16.957Z,22.58
2016-11-23T06:40:16.616Z,22.61
2016-11-23T06:41:16.648Z,22.55
2016-11-23T06:42:16.681Z,22.65
2016-11-23T06:43:16.409Z,22.57
2016-11-23T06:44:16.738Z,22.65
2016-11-23T06:45:17.059Z,22.65
2016-11-23T06:46:16.789Z,22.67
2016-11-23T06:47:16.517Z,22.64
2016-11-23T06:48:17.163Z,22.55
2016-11-23T06:49:17.171Z,22.64
2016-11-23T06:50:16.910Z,22.57
2016-11-23T06:51:16.940Z,22.67
2016-11-23T06:52:17.273Z,22.67
2016-11-23T06:53:17.301Z,22.64
2016-11-23T06:54:17.022Z,22.57
2016-11-23T06:55:17.046Z,22.7
2016-11-23T06:56:17.388Z,22.76
2016-11-23T06:57:17.403Z,22.58
2016-11-23T06:58:16.829Z,22.65
2016-11-23T06:59:17.157Z,22.76
2016-11-23T07:00:17.486Z,22.68
2016-11-23T07:01:17.220Z,22.65
2016-11-23T07:02:16.940Z,22.65
2016-11-23T07:03:16.976Z,22.75
2016-11-23T07:04:17.300Z,22.76
2016-11-23T07:05:17.330Z,22.73
2016-11-23T07:06:17.352Z,22.64
2016-11-23T07:07:17.379Z,22.75
2016-11-23T07:08:17.412Z,22.75
2016-11-23T07:09:17.746Z,22.79
2016-11-23T07:10:17.465Z,22.75
2016-11-23T07:11:17.794Z,22.73
2016-11-23T07:12:17.523Z,22.72
2016-11-23T07:13:17.876Z,22.76
2016-11-23T07:14:17.577Z,22.76
2016-11-23T07:15:17.904Z,22.8
2016-11-23T07:16:17.937Z,22.79
2016-11-23T07:17:17.974Z,22.77
2016-11-23T07:18:17.995Z,22.85
2016-11-23T07:19:17.419Z,22.83
2016-11-23T07:20:18.088Z,22.8
2016-11-23T07:21:18.081Z,22.85
2016-11-23T07:22:17.810Z,22.85
2016-11-23T07:23:17.840Z,22.8
2016-11-23T07:24:18.167Z,22.79
2016-11-23T07:25:18.196Z,22.88
2016-11-23T07:26:17.933Z,22.88
2016-11-23T07:27:18.248Z,22.83
2016-11-23T07:28:17.982Z,22.88
2016-11-23T07:29:18.306Z,22.86
2016-11-23T07:30:18.035Z,22.88
2016-11-23T07:31:18.055Z,22.88
2016-11-23T07:32:18.089Z,22.86
2016-11-23T07:33:18.121Z,22.9
2016-11-23T07:34:18.141Z,22.86
2016-11-23T07:35:17.890Z,22.88
2016-11-23T07:36:18.195Z,22.86
2016-11-23T07:37:17.923Z,22.82
2016-11-23T07:38:18.564Z,22.79
2016-11-23T07:39:18.289Z,22.77
2016-11-23T07:40:18.313Z,22.77
2016-11-23T07:41:18.351Z,22.68
2016-11-23T07:42:18.674Z,22.64
2016-11-23T07:43:18.096Z,22.73
2016-11-23T07:44:18.428Z,22.68
2016-11-23T07:45:18.764Z,22.62
2016-11-23T07:46:18.513Z,22.57
2016-11-23T07:47:18.819Z,22.62
2016-11-23T07:48:18.843Z,22.57
2016-11-23T07:49:18.575Z,22.62
2016-11-23T07:50:18.917Z,22.54
2016-11-23T07:51:18.649Z,22.55
2016-11-23T07:52:18.677Z,22.55
2016-11-23T07:53:18.990Z,22.64
2016-11-23T07:54:19.015Z,22.72
2016-11-23T07:55:19.056Z,22.72
2016-11-23T07:56:18.756Z,22.68
2016-11-23T07:57:19.109Z,22.7
2016-11-23T07:58:18.827Z,22.68
2016-11-23T07:59:19.155Z,22.7
2016-11-23T08:00:18.891Z,22.67
2016-11-23T08:01:19.252Z,22.68
2016-11-23T08:02:18.633Z,22.67
2016-11-23T08:03:18.957Z,22.64
2016-11-23T08:04:18.993Z,22.61
2016-11-23T08:05:19.327Z,22.6
2016-11-23T08:06:19.055Z,22.62
2016-11-23T08:07:19.068Z,22.51
2016-11-23T08:08:19.401Z,22.47
2016-11-23T08:09:19.133Z,22.51
2016-11-23T08:10:19.166Z,22.52
2016-11-23T08:11:19.186Z,22.57
2016-11-23T08:12:19.501Z,22.46
2016-11-23T08:13:19.544Z,22.46
2016-11-23T08:15:19.299Z,22.52
2016-11-23T08:16:19.018Z,22.51
2016-11-23T08:17:19.342Z,22.45
2016-11-23T08:18:19.372Z,22.37
2016-11-23T08:19:19.104Z,22.42
2016-11-23T08:20:19.737Z,22.4
2016-11-23T08:21:19.466Z,22.37
2016-11-23T08:22:19.535Z,22.4
2016-11-23T08:23:19.823Z,22.37
2016-11-23T08:24:19.839Z,22.43
2016-11-23T08:25:19.585Z,22.36
2016-11-23T08:26:19.605Z,22.49
2016-11-23T08:27:19.630Z,22.36
2016-11-23T08:28:19.654Z,22.39
2016-11-23T08:29:19.683Z,22.45
2016-11-23T08:30:19.710Z,22.39
2016-11-23T08:31:19.737Z,22.35
2016-11-23T08:32:19.466Z,22.4
2016-11-23T08:33:19.806Z,22.37
2016-11-23T08:34:19.823Z,22.43
2016-11-23T08:35:19.547Z,22.39
2016-11-23T08:36:20.182Z,22.39
2016-11-23T08:37:19.898Z,22.37
2016-11-23T08:38:19.931Z,22.36
2016-11-23T08:39:19.964Z,22.46
2016-11-23T08:40:19.993Z,22.45
2016-11-23T08:41:20.045Z,22.51
2016-11-23T08:42:20.050Z,22.46
2016-11-23T08:43:20.382Z,22.47
2016-11-23T08:44:20.107Z,22.51
2016-11-23T08:45:20.432Z,22.47
2016-11-23T08:46:20.490Z,22.6
2016-11-23T08:47:20.482Z,22.51
2016-11-23T08:48:20.218Z,22.54
2016-11-23T08:49:20.547Z,22.47
2016-11-23T08:50:20.261Z,22.54
2016-11-23T08:51:20.301Z,22.51
2016-11-23T08:52:20.021Z,22.52
2016-11-23T08:53:20.363Z,22.52
2016-11-23T08:54:20.683Z,22.57
2016-11-23T08:55:20.112Z,22.52
2016-11-23T08:56:20.133Z,22.62
2016-11-23T08:57:20.469Z,22.62
2016-11-23T08:58:20.502Z,22.61
2016-11-23T08:59:20.216Z,22.68
2016-11-23T09:00:20.860Z,22.57
2016-11-23T09:01:20.577Z,22.64
2016-11-23T09:02:20.909Z,22.7
2016-11-23T09:03:20.635Z,22.62
2016-11-23T09:04:20.959Z,22.62
2016-11-23T09:05:20.687Z,22.65
2016-11-23T09:06:20.716Z,22.79
2016-11-23T09:07:21.052Z,22.75
2016-11-23T09:08:21.074Z,22.76
2016-11-23T09:09:20.503Z,22.75
2016-11-23T09:10:20.835Z,22.77
2016-11-23T09:11:21.152Z,22.76
2016-11-23T09:12:20.885Z,22.75
2016-11-23T09:13:20.909Z,22.76
2016-11-23T09:14:20.942Z,22.77
2016-11-23T09:15:21.275Z,22.76
2016-11-23T09:16:21.304Z,22.76
2016-11-23T09:17:21.340Z,22.76
2016-11-23T09:18:20.762Z,22.75
2016-11-23T09:19:20.787Z,22.68
2016-11-23T09:20:21.414Z,22.67
2016-11-23T09:21:21.452Z,22.72
2016-11-23T09:22:21.205Z,22.68
2016-11-23T09:23:20.893Z,22.67
2016-11-23T09:24:21.531Z,22.62
2016-11-23T09:25:21.562Z,22.7
2016-11-23T09:26:21.307Z,22.68
2016-11-23T09:27:21.614Z,22.6
2016-11-23T09:28:21.641Z,22.67
2016-11-23T09:29:21.665Z,22.76
2016-11-23T09:30:21.395Z,22.62
2016-11-23T09:31:21.420Z,22.67
2016-11-23T09:32:21.452Z,22.65
2016-11-23T09:33:21.785Z,22.62
2016-11-23T09:34:21.810Z,22.62
2016-11-23T09:35:21.534Z,22.64
2016-11-23T09:36:21.875Z,22.6
2016-11-23T09:37:21.580Z,22.61
2016-11-23T09:38:21.945Z,22.64
2016-11-23T09:39:21.650Z,22.58
2016-11-23T09:40:21.683Z,22.65
2016-11-23T09:41:21.711Z,22.57
2016-11-23T09:42:21.728Z,22.61
2016-11-23T09:43:21.460Z,22.57
2016-11-23T09:44:21.781Z,22.47
2016-11-23T09:45:22.118Z,22.47
2016-11-23T09:46:21.843Z,22.58
2016-11-23T09:47:21.568Z,22.43
2016-11-23T09:48:21.913Z,22.58
2016-11-23T09:49:22.234Z,22.58
2016-11-23T09:50:21.958Z,22.61
2016-11-23T09:51:21.975Z,22.51
2016-11-23T09:52:22.299Z,22.58
2016-11-23T09:53:22.344Z,22.6
2016-11-23T09:54:22.065Z,22.61
2016-11-23T09:55:22.412Z,22.55
2016-11-23T09:56:22.122Z,22.64
2016-11-23T09:57:22.455Z,22.57
2016-11-23T09:58:22.488Z,22.51
2016-11-23T09:59:22.513Z,22.55
2016-11-23T10:00:22.534Z,22.61
2016-11-23T10:01:22.269Z,22.62
2016-11-23T10:02:21.984Z,22.52
2016-11-23T10:03:22.316Z,22.64
2016-11-23T10:04:22.381Z,22.52
2016-11-23T10:05:22.376Z,22.62
2016-11-23T10:06:22.702Z,22.55
2016-11-23T10:07:22.723Z,22.64
2016-11-23T10:08:22.460Z,22.64
2016-11-23T10:09:22.505Z,22.68
2016-11-23T10:10:22.522Z,22.62
2016-11-23T10:11:22.542Z,22.65
2016-11-23T10:12:22.579Z,22.62
2016-11-23T10:13:22.908Z,22.6
2016-11-23T10:14:22.628Z,22.62
2016-11-23T10:15:22.358Z,22.67
2016-11-23T10:16:22.694Z,22.64
2016-11-23T10:17:22.747Z,22.65
2016-11-23T10:18:22.443Z,22.68
2016-11-23T10:19:23.069Z,22.61
2016-11-23T10:20:22.497Z,22.6
2016-11-23T10:21:22.846Z,22.7
2016-11-23T10:22:23.154Z,22.64
2016-11-23T10:23:22.592Z,22.68
2016-11-23T10:24:22.624Z,22.68
2016-11-23T10:25:22.637Z,22.7
2016-11-23T10:26:22.974Z,22.65
2016-11-23T10:27:23.306Z,22.68
2016-11-23T10:28:23.344Z,22.72
2016-11-23T10:29:23.356Z,22.7
2016-11-23T10:30:22.781Z,22.67
2016-11-23T10:31:23.422Z,22.64
2016-11-23T10:32:23.459Z,22.61
2016-11-23T10:33:23.165Z,22.65
2016-11-23T10:34:23.500Z,22.7
2016-11-23T10:35:23.529Z,22.62
2016-11-23T10:36:23.558Z,22.6
2016-11-23T10:37:22.983Z,22.65
2016-11-23T10:38:23.611Z,22.67
2016-11-23T10:39:23.340Z,22.68
2016-11-23T10:40:23.681Z,22.68
2016-11-23T10:41:23.397Z,22.64
2016-11-23T10:42:23.123Z,22.72
2016-11-23T10:43:23.767Z,22.67
2016-11-23T10:44:23.792Z,22.67
2016-11-23T10:45:23.500Z,22.67
2016-11-23T10:46:23.538Z,22.73
2016-11-23T10:47:23.571Z,22.7
2016-11-23T10:48:23.919Z,22.7
2016-11-23T10:49:23.925Z,22.67
2016-11-23T10:50:23.953Z,22.72
2016-11-23T10:51:23.993Z,22.73
2016-11-23T10:52:24.018Z,22.76
2016-11-23T10:53:23.735Z,22.77
2016-11-23T10:54:24.071Z,22.76
2016-11-23T10:55:23.804Z,22.73
2016-11-23T10:56:23.519Z,22.79
2016-11-23T10:57:24.145Z,22.83
2016-11-23T10:58:23.867Z,22.8
2016-11-23T10:59:24.215Z,22.88
2016-11-23T11:00:23.940Z,22.86
2016-11-23T11:01:24.269Z,22.79
2016-11-23T11:02:23.721Z,22.83
2016-11-23T11:03:24.327Z,22.8
2016-11-23T11:04:24.047Z,22.79
2016-11-23T11:05:24.084Z,22.91
2016-11-23T11:06:24.412Z,22.82
2016-11-23T11:07:24.441Z,22.83
2016-11-23T11:08:24.469Z,22.85
2016-11-23T11:09:24.182Z,22.91
2016-11-23T11:10:24.223Z,22.83
2016-11-23T11:11:24.548Z,22.86
2016-11-23T11:12:24.610Z,22.82
2016-11-23T11:13:24.002Z,22.9
2016-11-23T11:14:24.651Z,22.8
2016-11-23T11:15:24.368Z,22.83
2016-11-23T11:16:24.400Z,22.83
2016-11-23T11:17:24.736Z,22.85
2016-11-23T11:18:24.485Z,22.82
2016-11-23T11:19:24.483Z,22.83
2016-11-23T11:20:24.799Z,22.88
2016-11-23T11:21:24.548Z,22.88
2016-11-23T11:22:24.597Z,22.85
2016-11-23T11:23:24.641Z,22.83
2016-11-23T11:24:24.910Z,22.85
2016-11-23T11:25:24.647Z,22.9
2016-11-23T11:26:24.984Z,22.85
2016-11-23T11:27:25.009Z,22.91
2016-11-23T11:28:25.041Z,22.9
2016-11-23T11:29:24.769Z,22.9
2016-11-23T11:30:24.488Z,22.9
2016-11-23T11:31:25.124Z,22.9
2016-11-23T11:32:25.161Z,22.94
2016-11-23T11:33:24.893Z,23.01
2016-11-23T11:34:25.205Z,22.91
2016-11-23T11:35:24.931Z,22.9
2016-11-23T11:36:24.960Z,23
2016-11-23T11:37:25.294Z,23.01
2016-11-23T11:38:24.721Z,22.97
2016-11-23T11:39:25.070Z,23.09
2016-11-23T11:40:25.078Z,23.05
2016-11-23T11:41:24.799Z,23.01
2016-11-23T11:42:25.127Z,23.02
2016-11-23T11:43:25.164Z,23.02
2016-11-23T11:44:24.885Z,23.09
2016-11-23T11:45:25.230Z,23
2016-11-23T11:46:24.936Z,23.01
2016-11-23T11:47:25.599Z,23.04
2016-11-23T11:48:25.624Z,23.07
2016-11-23T11:49:25.033Z,23.07
2016-11-23T11:50:25.058Z,23.1
2016-11-23T11:51:25.375Z,23.12
2016-11-23T11:52:25.423Z,23.13
2016-11-23T11:53:25.747Z,23.09
2016-11-23T11:54:25.476Z,23.12
2016-11-23T11:55:25.809Z,23.1
2016-11-23T11:56:25.842Z,23.1
2016-11-23T11:57:25.875Z,23.05
2016-11-23T11:58:25.287Z,23.17
2016-11-23T11:59:25.321Z,23.22
2016-11-23T12:00:25.980Z,23.15
2016-11-23T12:01:25.686Z,23.2
2016-11-23T12:02:25.998Z,23.15
2016-11-23T12:03:26.043Z,23.25
2016-11-23T12:04:26.055Z,23.22
2016-11-23T12:05:26.097Z,23.19
2016-11-23T12:06:26.125Z,23.17
2016-11-23T12:07:25.847Z,23.19
2016-11-23T12:08:26.176Z,23.05
2016-11-23T12:09:26.200Z,23.12
2016-11-23T12:10:26.240Z,23.22
2016-11-23T12:11:25.961Z,23.13
2016-11-23T12:12:25.690Z,23.15
2016-11-23T12:13:26.319Z,23.12
2016-11-23T12:14:26.048Z,23.1
2016-11-23T12:15:26.074Z,23.09
2016-11-23T12:16:26.096Z,23.05
2016-11-23T12:17:26.437Z,23.05
2016-11-23T12:18:26.162Z,23
2016-11-23T12:19:26.498Z,23.04
2016-11-23T12:20:26.212Z,23.01
2016-11-23T12:21:26.236Z,23.02
2016-11-23T12:22:26.285Z,23.02
2016-11-23T12:23:26.609Z,23.07
2016-11-23T12:24:26.638Z,23.02
2016-11-23T12:25:26.363Z,22.97
2016-11-23T12:26:26.692Z,23.02
2016-11-23T12:27:26.420Z,23.05
2016-11-23T12:28:26.137Z,22.88
2016-11-23T12:29:26.477Z,23.05
2016-11-23T12:30:26.502Z,23.05
2016-11-23T12:31:26.547Z,22.98
2016-11-23T12:32:26.553Z,23.02
2016-11-23T12:33:26.896Z,23.04
2016-11-23T12:34:26.626Z,22.94
2016-11-23T12:35:26.351Z,23.01
2016-11-23T12:36:26.975Z,23.02
2016-11-23T12:37:27.004Z,23.02
2016-11-23T12:38:27.036Z,23.1
2016-11-23T12:39:27.065Z,23.04
2016-11-23T12:40:26.786Z,23.01
2016-11-23T12:41:26.819Z,23.05
2016-11-23T12:42:26.843Z,23.02
2016-11-23T12:43:27.188Z,23.07
2016-11-23T12:44:27.204Z,23.09
2016-11-23T12:45:26.946Z,23.01
2016-11-23T12:46:27.266Z,23.01
2016-11-23T12:47:26.691Z,23.05
2016-11-23T12:48:27.008Z,22.97
2016-11-23T12:49:27.035Z,22.95
2016-11-23T12:50:27.085Z,22.97
2016-11-23T12:51:27.097Z,23.09
2016-11-23T12:52:27.131Z,22.95
2016-11-23T12:53:27.171Z,22.98
2016-11-23T12:54:27.188Z,22.97
2016-11-23T12:55:27.220Z,22.98
2016-11-23T12:56:27.565Z,22.98